createdAt,value
2018-10-18T00:00:47.964Z,964.68
2018-10-18T00:01:47.904Z,964.65
2018-10-18T00:02:47.839Z,964.65
2018-10-18T00:03:47.777Z,964.66
2018-10-18T00:04:47.713Z,964.66
2018-10-18T00:05:47.668Z,964.67
2018-10-18T00:06:47.581Z,964.67
2018-10-18T00:07:47.527Z,964.67
2018-10-18T00:08:47.467Z,964.68
2018-10-18T00:09:47.396Z,964.72
2018-10-18T00:10:47.341Z,964.69
2018-10-18T00:11:47.264Z,964.69
2018-10-18T00:12:47.204Z,964.73
2018-10-18T00:13:47.147Z,964.72
2018-10-18T00:14:47.078Z,964.72
2018-10-18T00:15:47.018Z,964.70
2018-10-18T00:16:46.961Z,964.69
2018-10-18T00:17:46.890Z,964.72
2018-10-18T00:18:46.828Z,964.63
2018-10-18T00:19:46.761Z,964.71
2018-10-18T00:20:46.704Z,964.68
2018-10-18T00:21:46.640Z,964.69
2018-10-18T00:22:46.578Z,964.68
2018-10-18T00:23:46.510Z,964.73
2018-10-18T00:24:46.444Z,964.73
2018-10-18T00:25:46.379Z,964.74
2018-10-18T00:26:46.328Z,964.77
2018-10-18T00:27:46.265Z,964.68
2018-10-18T00:28:46.192Z,964.75
2018-10-18T00:29:46.131Z,964.76
2018-10-18T00:30:46.066Z,964.74
2018-10-18T00:31:46.002Z,964.76
2018-10-18T00:32:45.941Z,964.72
2018-10-18T00:33:45.875Z,964.70
2018-10-18T00:34:45.815Z,964.71
2018-10-18T00:35:45.748Z,964.70
2018-10-18T00:36:45.686Z,964.69
2018-10-18T00:37:45.630Z,964.66
2018-10-18T00:38:45.559Z,964.70
2018-10-18T00:39:45.495Z,964.67
2018-10-18T00:40:45.432Z,964.66
2018-10-18T00:41:45.367Z,964.68
2018-10-18T00:42:45.308Z,964.71
2018-10-18T00:43:45.316Z,964.72
2018-10-18T00:44:45.222Z,964.72
2018-10-18T00:45:45.133Z,964.66
2018-10-18T00:46:45.052Z,964.71
2018-10-18T00:47:44.989Z,964.68
2018-10-18T00:48:44.937Z,964.69
2018-10-18T00:49:44.861Z,964.69
2018-10-18T00:50:44.801Z,964.68
2018-10-18T00:51:44.739Z,964.71
2018-10-18T00:52:44.675Z,964.69
2018-10-18T00:53:44.616Z,964.65
2018-10-18T00:54:44.545Z,964.65
2018-10-18T00:55:44.480Z,964.64
2018-10-18T00:56:44.432Z,964.62
2018-10-18T00:57:44.355Z,964.60
2018-10-18T00:58:44.295Z,964.59
2018-10-18T00:59:44.224Z,964.60
2018-10-18T01:00:44.166Z,964.57
2018-10-18T01:01:44.106Z,964.54
2018-10-18T01:02:53.300Z,964.55
2018-10-18T01:04:37.313Z,964.55
2018-10-18T01:05:46.405Z,964.55
2018-10-18T01:07:30.481Z,964.56
2018-10-18T01:08:30.411Z,964.57
2018-10-18T01:09:30.352Z,964.56
2018-10-18T01:10:30.295Z,964.53
2018-10-18T01:11:30.220Z,964.56
2018-10-18T01:12:30.353Z,964.53
2018-10-18T01:13:30.092Z,964.55
2018-10-18T01:14:30.033Z,964.52
2018-10-18T01:15:29.969Z,964.51
2018-10-18T01:16:29.897Z,964.51
2018-10-18T01:17:29.841Z,964.51
2018-10-18T01:18:29.785Z,964.51
2018-10-18T01:19:29.709Z,964.51
2018-10-18T01:20:29.645Z,964.51
2018-10-18T01:21:29.583Z,964.52
2018-10-18T01:22:29.523Z,964.47
2018-10-18T01:23:29.456Z,964.45
2018-10-18T01:24:29.395Z,964.47
2018-10-18T01:25:29.330Z,964.48
2018-10-18T01:26:29.269Z,964.45
2018-10-18T01:27:29.203Z,964.46
2018-10-18T01:28:29.143Z,964.46
2018-10-18T01:29:29.071Z,964.51
2018-10-18T01:30:29.015Z,964.42
2018-10-18T01:31:28.955Z,964.49
2018-10-18T01:32:28.882Z,964.49
2018-10-18T01:33:28.821Z,964.51
2018-10-18T01:34:28.757Z,964.50
2018-10-18T01:35:28.692Z,964.51
2018-10-18T01:36:28.631Z,964.50
2018-10-18T01:37:28.564Z,964.55
2018-10-18T01:38:28.504Z,964.53
2018-10-18T01:39:28.448Z,964.51
2018-10-18T01:40:28.375Z,964.51
2018-10-18T01:41:28.319Z,964.53
2018-10-18T01:42:28.254Z,964.51
2018-10-18T01:43:28.191Z,964.51
2018-10-18T01:44:28.129Z,964.51
2018-10-18T01:45:28.056Z,964.52
2018-10-18T01:46:28.000Z,964.50
2018-10-18T01:47:27.946Z,964.51
2018-10-18T01:48:27.867Z,964.50
2018-10-18T01:49:27.807Z,964.52
2018-10-18T01:50:27.736Z,964.49
2018-10-18T01:51:27.679Z,964.52
2018-10-18T01:52:27.621Z,964.50
2018-10-18T01:53:27.548Z,964.51
2018-10-18T01:54:27.493Z,964.46
2018-10-18T01:55:27.419Z,964.50
2018-10-18T01:56:27.358Z,964.50
2018-10-18T01:57:27.298Z,964.49
2018-10-18T01:58:27.240Z,964.48
2018-10-18T01:59:27.173Z,964.45
2018-10-18T02:00:27.119Z,964.47
2018-10-18T02:01:27.037Z,964.47
2018-10-18T02:02:26.988Z,964.46
2018-10-18T02:03:26.909Z,964.47
2018-10-18T02:04:26.848Z,964.46
2018-10-18T02:05:26.803Z,964.48
2018-10-18T02:06:26.721Z,964.49
2018-10-18T02:07:26.659Z,964.45
2018-10-18T02:08:26.611Z,964.48
2018-10-18T02:09:26.531Z,964.47
2018-10-18T02:10:26.464Z,964.48
2018-10-18T02:11:26.409Z,964.42
2018-10-18T02:12:26.348Z,964.45
2018-10-18T02:13:26.337Z,964.49
2018-10-18T02:14:26.209Z,964.48
2018-10-18T02:15:26.148Z,964.48
2018-10-18T02:16:26.097Z,964.51
2018-10-18T02:17:26.027Z,964.52
2018-10-18T02:18:25.963Z,964.51
2018-10-18T02:19:25.893Z,964.49
2018-10-18T02:20:25.861Z,964.47
2018-10-18T02:21:25.767Z,964.48
2018-10-18T02:22:25.703Z,964.51
2018-10-18T02:23:25.640Z,964.50
2018-10-18T02:24:25.583Z,964.49
2018-10-18T02:25:25.512Z,964.54
2018-10-18T02:26:25.459Z,964.52
2018-10-18T02:27:25.380Z,964.53
2018-10-18T02:28:25.321Z,964.49
2018-10-18T02:29:25.264Z,964.51
2018-10-18T02:30:25.201Z,964.47
2018-10-18T02:31:25.143Z,964.48
2018-10-18T02:32:25.062Z,964.44
2018-10-18T02:33:25.002Z,964.46
2018-10-18T02:34:24.955Z,964.48
2018-10-18T02:35:24.874Z,964.44
2018-10-18T02:36:24.812Z,964.43
2018-10-18T02:37:24.747Z,964.39
2018-10-18T02:38:24.685Z,964.40
2018-10-18T02:39:24.627Z,964.37
2018-10-18T02:40:24.567Z,964.39
2018-10-18T02:41:24.503Z,964.37
2018-10-18T02:42:24.445Z,964.41
2018-10-18T02:43:24.362Z,964.38
2018-10-18T02:44:24.307Z,964.42
2018-10-18T02:45:24.244Z,964.38
2018-10-18T02:46:24.172Z,964.37
2018-10-18T02:47:24.113Z,964.33
2018-10-18T02:48:24.062Z,964.37
2018-10-18T02:49:23.983Z,964.36
2018-10-18T02:50:23.922Z,964.31
2018-10-18T02:51:23.857Z,964.33
2018-10-18T02:52:23.799Z,964.30
2018-10-18T02:53:23.730Z,964.30
2018-10-18T02:54:23.667Z,964.32
2018-10-18T02:55:23.613Z,964.34
2018-10-18T02:56:23.534Z,964.30
2018-10-18T02:57:23.478Z,964.32
2018-10-18T02:58:23.415Z,964.32
2018-10-18T02:59:23.341Z,964.33
2018-10-18T03:00:23.280Z,964.34
2018-10-18T03:01:23.236Z,964.35
2018-10-18T03:02:23.154Z,964.33
2018-10-18T03:03:23.090Z,964.34
2018-10-18T03:04:23.023Z,964.30
2018-10-18T03:05:22.963Z,964.28
2018-10-18T03:06:22.899Z,964.30
2018-10-18T03:07:22.836Z,964.29
2018-10-18T03:08:22.772Z,964.28
2018-10-18T03:09:22.703Z,964.26
2018-10-18T03:10:22.665Z,964.30
2018-10-18T03:11:22.591Z,964.29
2018-10-18T03:12:22.567Z,964.30
2018-10-18T03:13:22.454Z,964.32
2018-10-18T03:14:22.418Z,964.26
2018-10-18T03:15:22.324Z,964.30
2018-10-18T03:16:22.259Z,964.30
2018-10-18T03:17:22.196Z,964.32
2018-10-18T03:18:22.138Z,964.33
2018-10-18T03:19:22.077Z,964.31
2018-10-18T03:20:22.008Z,964.31
2018-10-18T03:21:21.942Z,964.35
2018-10-18T03:22:21.885Z,964.35
2018-10-18T03:23:21.822Z,964.33
2018-10-18T03:24:21.758Z,964.33
2018-10-18T03:25:21.681Z,964.35
2018-10-18T03:26:21.621Z,964.32
2018-10-18T03:27:21.559Z,964.37
2018-10-18T03:28:21.495Z,964.38
2018-10-18T03:29:21.434Z,964.36
2018-10-18T03:30:21.424Z,964.40
2018-10-18T03:31:21.307Z,964.43
2018-10-18T03:32:21.244Z,964.44
2018-10-18T03:33:21.174Z,964.40
2018-10-18T03:34:21.124Z,964.40
2018-10-18T03:35:21.048Z,964.39
2018-10-18T03:36:21.090Z,964.43
2018-10-18T03:37:20.924Z,964.44
2018-10-18T03:38:20.854Z,964.45
2018-10-18T03:39:20.814Z,964.43
2018-10-18T03:40:20.752Z,964.46
2018-10-18T03:41:20.674Z,964.47
2018-10-18T03:42:20.650Z,964.44
2018-10-18T03:43:20.536Z,964.42
2018-10-18T03:44:20.475Z,964.43
2018-10-18T03:45:20.409Z,964.45
2018-10-18T03:46:20.346Z,964.43
2018-10-18T03:47:20.288Z,964.43
2018-10-18T03:48:20.307Z,964.43
2018-10-18T03:49:20.161Z,964.41
2018-10-18T03:50:20.094Z,964.46
2018-10-18T03:51:20.022Z,964.38
2018-10-18T03:52:19.961Z,964.40
2018-10-18T03:53:19.908Z,964.36
2018-10-18T03:54:19.897Z,964.40
2018-10-18T03:55:19.771Z,964.41
2018-10-18T03:56:19.704Z,964.41
2018-10-18T03:57:19.641Z,964.38
2018-10-18T03:58:19.579Z,964.40
2018-10-18T03:59:19.514Z,964.42
2018-10-18T04:00:19.556Z,964.41
2018-10-18T04:01:19.391Z,964.45
2018-10-18T04:02:19.329Z,964.41
2018-10-18T04:03:19.271Z,964.45
2018-10-18T04:04:19.193Z,964.45
2018-10-18T04:05:19.129Z,964.45
2018-10-18T04:06:19.115Z,964.44
2018-10-18T04:07:19.005Z,964.42
2018-10-18T04:08:18.938Z,964.47
2018-10-18T04:09:18.876Z,964.41
2018-10-18T04:10:18.810Z,964.43
2018-10-18T04:11:18.745Z,964.40
2018-10-18T04:12:18.768Z,964.44
2018-10-18T04:13:18.692Z,964.43
2018-10-18T04:14:18.557Z,964.37
2018-10-18T04:15:18.501Z,964.38
2018-10-18T04:16:18.434Z,964.41
2018-10-18T04:17:18.366Z,964.38
2018-10-18T04:18:18.322Z,964.41
2018-10-18T04:19:18.234Z,964.42
2018-10-18T04:20:18.170Z,964.40
2018-10-18T04:21:18.111Z,964.41
2018-10-18T04:22:18.043Z,964.43
2018-10-18T04:23:17.984Z,964.39
2018-10-18T04:24:18.045Z,964.40
2018-10-18T04:25:17.858Z,964.45
2018-10-18T04:26:17.789Z,964.40
2018-10-18T04:27:17.718Z,964.37
2018-10-18T04:28:17.658Z,964.42
2018-10-18T04:29:17.603Z,964.40
2018-10-18T04:30:17.614Z,964.41
2018-10-18T04:31:17.466Z,964.38
2018-10-18T04:32:17.402Z,964.42
2018-10-18T04:33:17.338Z,964.42
2018-10-18T04:34:17.274Z,964.41
2018-10-18T04:35:17.214Z,964.41
2018-10-18T04:36:17.221Z,964.41
2018-10-18T04:37:17.091Z,964.44
2018-10-18T04:38:17.023Z,964.40
2018-10-18T04:39:16.962Z,964.40
2018-10-18T04:40:16.891Z,964.47
2018-10-18T04:41:16.827Z,964.42
2018-10-18T04:42:16.843Z,964.42
2018-10-18T04:43:16.700Z,964.48
2018-10-18T04:44:16.634Z,964.52
2018-10-18T04:45:16.569Z,964.51
2018-10-18T04:46:16.508Z,964.47
2018-10-18T04:47:16.590Z,964.50
2018-10-18T04:48:16.485Z,964.49
2018-10-18T04:49:16.323Z,964.50
2018-10-18T04:50:16.256Z,964.49
2018-10-18T04:51:16.186Z,964.54
2018-10-18T04:52:16.120Z,964.47
2018-10-18T04:53:16.056Z,964.55
2018-10-18T04:54:15.991Z,964.54
2018-10-18T04:55:16.015Z,964.61
2018-10-18T04:56:15.863Z,964.62
2018-10-18T04:57:15.798Z,964.62
2018-10-18T04:58:15.736Z,964.65
2018-10-18T04:59:15.673Z,964.64
2018-10-18T05:00:15.606Z,964.64
2018-10-18T05:01:15.684Z,964.68
2018-10-18T05:02:15.480Z,964.67
2018-10-18T05:03:15.423Z,964.64
2018-10-18T05:04:15.356Z,964.67
2018-10-18T05:05:15.294Z,964.65
2018-10-18T05:06:15.219Z,964.67
2018-10-18T05:07:15.170Z,964.65
2018-10-18T05:08:15.098Z,964.67
2018-10-18T05:09:15.030Z,964.64
2018-10-18T05:10:14.966Z,964.68
2018-10-18T05:11:14.970Z,964.67
2018-10-18T05:12:14.837Z,964.61
2018-10-18T05:13:14.839Z,964.65
2018-10-18T05:14:14.709Z,964.64
2018-10-18T05:15:14.646Z,964.68
2018-10-18T05:16:14.580Z,964.66
2018-10-18T05:17:14.525Z,964.67
2018-10-18T05:18:14.456Z,964.68
2018-10-18T05:19:14.491Z,964.65
2018-10-18T05:20:14.325Z,964.67
2018-10-18T05:21:14.262Z,964.70
2018-10-18T05:22:14.198Z,964.67
2018-10-18T05:23:14.134Z,964.72
2018-10-18T05:24:14.064Z,964.70
2018-10-18T05:25:14.079Z,964.71
2018-10-18T05:26:13.946Z,964.71
2018-10-18T05:27:13.877Z,964.73
2018-10-18T05:28:13.814Z,964.73
2018-10-18T05:29:13.802Z,964.75
2018-10-18T05:30:13.684Z,964.74
2018-10-18T05:31:13.656Z,964.74
2018-10-18T05:32:13.560Z,964.75
2018-10-18T05:33:13.492Z,964.73
2018-10-18T05:34:13.430Z,964.73
2018-10-18T05:35:13.363Z,964.74
2018-10-18T05:36:13.301Z,964.74
2018-10-18T05:37:13.312Z,964.75
2018-10-18T05:38:13.172Z,964.74
2018-10-18T05:39:13.109Z,964.78
2018-10-18T05:40:13.045Z,964.76
2018-10-18T05:41:12.979Z,964.76
2018-10-18T05:42:12.917Z,964.76
2018-10-18T05:43:12.923Z,964.78
2018-10-18T05:44:12.787Z,964.79
2018-10-18T05:45:12.722Z,964.76
2018-10-18T05:46:12.660Z,964.81
2018-10-18T05:47:12.656Z,964.81
2018-10-18T05:48:12.530Z,964.80
2018-10-18T05:49:12.601Z,964.77
2018-10-18T05:50:12.404Z,964.85
2018-10-18T05:51:12.338Z,964.82
2018-10-18T05:52:12.280Z,964.87
2018-10-18T05:53:12.297Z,964.85
2018-10-18T05:54:12.290Z,964.85
2018-10-18T05:55:12.129Z,964.85
2018-10-18T05:56:12.018Z,964.88
2018-10-18T05:57:11.964Z,964.89
2018-10-18T05:58:11.889Z,964.92
2018-10-18T05:59:11.828Z,964.92
2018-10-18T06:00:11.828Z,964.94
2018-10-18T06:01:11.749Z,964.96
2018-10-18T06:02:11.636Z,964.95
2018-10-18T06:03:11.572Z,964.97
2018-10-18T06:04:11.508Z,964.98
2018-10-18T06:05:11.441Z,965.01
2018-10-18T06:06:11.380Z,964.98
2018-10-18T06:07:11.377Z,964.99
2018-10-18T06:08:11.247Z,965.04
2018-10-18T06:09:11.190Z,965.02
2018-10-18T06:10:11.249Z,965.02
2018-10-18T06:11:11.057Z,965.05
2018-10-18T06:12:10.999Z,965.06
2018-10-18T06:13:10.991Z,965.07
2018-10-18T06:14:10.869Z,965.09
2018-10-18T06:15:10.809Z,965.12
2018-10-18T06:16:10.739Z,965.10
2018-10-18T06:17:10.678Z,965.08
2018-10-18T06:18:10.608Z,965.07
2018-10-18T06:19:10.634Z,965.11
2018-10-18T06:20:10.489Z,965.12
2018-10-18T06:21:10.424Z,965.09
2018-10-18T06:22:10.357Z,965.08
2018-10-18T06:23:10.348Z,965.07
2018-10-18T06:24:10.229Z,965.08
2018-10-18T06:25:10.190Z,965.10
2018-10-18T06:26:10.102Z,965.11
2018-10-18T06:27:10.043Z,965.12
2018-10-18T06:28:09.977Z,965.12
2018-10-18T06:29:09.971Z,965.10
2018-10-18T06:30:09.852Z,965.08
2018-10-18T06:31:09.851Z,965.13
2018-10-18T06:32:09.721Z,965.14
2018-10-18T06:33:09.700Z,965.14
2018-10-18T06:34:09.588Z,965.12
2018-10-18T06:35:09.588Z,965.18
2018-10-18T06:36:09.477Z,965.16
2018-10-18T06:37:09.460Z,965.19
2018-10-18T06:38:09.338Z,965.18
2018-10-18T06:39:09.294Z,965.27
2018-10-18T06:40:09.213Z,965.25
2018-10-18T06:41:09.235Z,965.26
2018-10-18T06:42:09.082Z,965.30
2018-10-18T06:43:09.094Z,965.27
2018-10-18T06:44:08.965Z,965.29
2018-10-18T06:45:08.901Z,965.29
2018-10-18T06:46:08.834Z,965.25
2018-10-18T06:47:08.878Z,965.30
2018-10-18T06:48:08.815Z,965.28
2018-10-18T06:49:08.751Z,965.29
2018-10-18T06:50:08.570Z,965.35
2018-10-18T06:51:08.509Z,965.28
2018-10-18T06:52:08.444Z,965.35
2018-10-18T06:53:08.383Z,965.33
2018-10-18T06:54:08.354Z,965.32
2018-10-18T06:55:08.260Z,965.34
2018-10-18T06:56:08.207Z,965.36
2018-10-18T06:57:08.132Z,965.39
2018-10-18T06:58:08.077Z,965.38
2018-10-18T06:59:08.003Z,965.38
2018-10-18T07:00:07.993Z,965.34
2018-10-18T07:01:07.875Z,965.37
2018-10-18T07:02:07.819Z,965.37
2018-10-18T07:03:07.743Z,965.37
2018-10-18T07:04:07.681Z,965.38
2018-10-18T07:05:07.627Z,965.36
2018-10-18T07:06:07.596Z,965.37
2018-10-18T07:07:07.498Z,965.36
2018-10-18T07:08:07.429Z,965.39
2018-10-18T07:09:07.368Z,965.41
2018-10-18T07:10:07.300Z,965.43
2018-10-18T07:11:07.330Z,965.42
2018-10-18T07:12:07.221Z,965.44
2018-10-18T07:13:07.109Z,965.43
2018-10-18T07:14:07.052Z,965.46
2018-10-18T07:15:06.990Z,965.43
2018-10-18T07:16:06.924Z,965.42
2018-10-18T07:17:06.862Z,965.45
2018-10-18T07:18:06.846Z,965.42
2018-10-18T07:19:06.732Z,965.46
2018-10-18T07:20:06.671Z,965.46
2018-10-18T07:21:06.616Z,965.44
2018-10-18T07:22:06.540Z,965.47
2018-10-18T07:23:06.480Z,965.45
2018-10-18T07:24:06.463Z,965.48
2018-10-18T07:25:06.362Z,965.51
2018-10-18T07:26:06.293Z,965.49
2018-10-18T07:27:06.231Z,965.53
2018-10-18T07:28:06.172Z,965.48
2018-10-18T07:29:06.096Z,965.52
2018-10-18T07:30:06.051Z,965.50
2018-10-18T07:31:05.972Z,965.51
2018-10-18T07:32:05.913Z,965.55
2018-10-18T07:33:05.849Z,965.53
2018-10-18T07:34:05.799Z,965.53
2018-10-18T07:35:05.840Z,965.53
2018-10-18T07:36:05.687Z,965.56
2018-10-18T07:37:05.594Z,965.55
2018-10-18T07:38:05.537Z,965.53
2018-10-18T07:39:05.471Z,965.60
2018-10-18T07:40:05.426Z,965.60
2018-10-18T07:41:05.361Z,965.60
2018-10-18T07:42:05.335Z,965.65
2018-10-18T07:43:05.217Z,965.64
2018-10-18T07:44:05.161Z,965.65
2018-10-18T07:45:05.100Z,965.64
2018-10-18T07:46:05.032Z,965.66
2018-10-18T07:47:04.968Z,965.66
2018-10-18T07:48:05.000Z,965.66
2018-10-18T07:49:04.843Z,965.61
2018-10-18T07:50:04.797Z,965.64
2018-10-18T07:51:04.712Z,965.69
2018-10-18T07:52:04.654Z,965.65
2018-10-18T07:53:04.680Z,965.64
2018-10-18T07:54:04.594Z,965.65
2018-10-18T07:55:04.467Z,965.65
2018-10-18T07:56:04.405Z,965.65
2018-10-18T07:57:04.333Z,965.67
2018-10-18T07:58:04.271Z,965.66
2018-10-18T07:59:04.209Z,965.71
2018-10-18T08:00:04.286Z,965.73
2018-10-18T08:01:04.095Z,965.73
2018-10-18T08:02:04.029Z,965.75
2018-10-18T08:03:03.959Z,965.74
2018-10-18T08:04:03.889Z,965.73
2018-10-18T08:05:03.849Z,965.79
2018-10-18T08:06:03.769Z,965.75
2018-10-18T08:07:03.750Z,965.76
2018-10-18T08:08:03.646Z,965.81
2018-10-18T08:09:03.582Z,965.79
2018-10-18T08:10:03.590Z,965.80
2018-10-18T08:11:03.545Z,965.79
2018-10-18T08:12:03.391Z,965.80
2018-10-18T08:13:03.412Z,965.86
2018-10-18T08:14:03.271Z,965.84
2018-10-18T08:15:03.208Z,965.86
2018-10-18T08:16:03.141Z,965.84
2018-10-18T08:17:03.255Z,965.85
2018-10-18T08:18:03.022Z,965.86
2018-10-18T08:19:03.003Z,965.87
2018-10-18T08:20:02.895Z,965.86
2018-10-18T08:21:02.829Z,965.81
2018-10-18T08:22:02.762Z,965.80
2018-10-18T08:23:02.706Z,965.81
2018-10-18T08:24:02.648Z,965.81
2018-10-18T08:25:02.618Z,965.77
2018-10-18T08:26:02.528Z,965.76
2018-10-18T08:27:02.467Z,965.77
2018-10-18T08:28:02.391Z,965.81
2018-10-18T08:29:02.326Z,965.85
2018-10-18T08:30:02.265Z,965.80
2018-10-18T08:31:02.275Z,965.85
2018-10-18T08:32:02.140Z,965.85
2018-10-18T08:33:02.078Z,965.80
2018-10-18T08:34:02.030Z,965.83
2018-10-18T08:35:01.954Z,965.81
2018-10-18T08:36:01.898Z,965.83
2018-10-18T08:37:01.845Z,965.85
2018-10-18T08:38:01.958Z,965.86
2018-10-18T08:39:01.705Z,965.89
2018-10-18T08:40:01.639Z,965.85
2018-10-18T08:41:01.580Z,965.87
2018-10-18T08:42:01.521Z,965.84
2018-10-18T08:43:01.530Z,965.86
2018-10-18T08:44:01.513Z,965.86
2018-10-18T08:45:01.337Z,965.86
2018-10-18T08:46:01.277Z,965.85
2018-10-18T08:47:01.206Z,965.87
2018-10-18T08:48:01.158Z,965.84
2018-10-18T08:49:01.112Z,965.84
2018-10-18T08:50:01.069Z,965.84
2018-10-18T08:51:00.949Z,965.89
2018-10-18T08:52:00.898Z,965.84
2018-10-18T08:53:00.828Z,965.86
2018-10-18T08:54:00.765Z,965.86
2018-10-18T08:55:00.764Z,965.85
2018-10-18T08:56:00.641Z,965.84
2018-10-18T08:57:00.578Z,965.87
2018-10-18T08:58:00.533Z,965.86
2018-10-18T08:59:00.506Z,965.89
2018-10-18T09:00:00.392Z,965.87
2018-10-18T09:01:00.376Z,965.90
2018-10-18T09:02:00.281Z,965.91
2018-10-18T09:03:00.208Z,965.88
2018-10-18T09:04:00.152Z,965.88
2018-10-18T09:05:00.085Z,965.88
2018-10-18T09:06:00.038Z,965.89
2018-10-18T09:06:59.965Z,965.85
2018-10-18T09:07:59.898Z,965.91
2018-10-18T09:08:59.859Z,965.87
2018-10-18T09:09:59.774Z,965.89
2018-10-18T09:10:59.711Z,965.88
2018-10-18T09:11:59.670Z,965.90
2018-10-18T09:12:59.667Z,965.88
2018-10-18T09:13:59.526Z,965.86
2018-10-18T09:14:59.466Z,965.88
2018-10-18T09:15:59.453Z,965.88
2018-10-18T09:16:59.339Z,965.88
2018-10-18T09:17:59.284Z,965.87
2018-10-18T09:18:59.242Z,965.87
2018-10-18T09:19:59.165Z,965.89
2018-10-18T09:20:59.171Z,965.88
2018-10-18T09:21:59.035Z,965.87
2018-10-18T09:22:58.975Z,965.92
2018-10-18T09:23:59.009Z,965.87
2018-10-18T09:24:58.886Z,965.86
2018-10-18T09:25:58.784Z,965.86
2018-10-18T09:26:58.721Z,965.87
2018-10-18T09:27:58.677Z,965.90
2018-10-18T09:28:58.599Z,965.86
2018-10-18T09:29:58.537Z,965.89
2018-10-18T09:30:58.521Z,965.88
2018-10-18T09:31:58.433Z,965.87
2018-10-18T09:32:58.350Z,965.87
2018-10-18T09:33:58.290Z,965.91
2018-10-18T09:34:58.230Z,965.91
2018-10-18T09:35:58.165Z,965.86
2018-10-18T09:36:58.144Z,965.84
2018-10-18T09:37:58.043Z,965.85
2018-10-18T09:38:57.985Z,965.86
2018-10-18T09:39:57.920Z,965.89
2018-10-18T09:40:57.869Z,965.82
2018-10-18T09:41:57.797Z,965.80
2018-10-18T09:42:57.752Z,965.75
2018-10-18T09:43:57.737Z,965.78
2018-10-18T09:44:57.786Z,965.78
2018-10-18T09:45:57.551Z,965.80
2018-10-18T09:46:57.492Z,965.82
2018-10-18T09:47:57.441Z,965.85
2018-10-18T09:48:57.389Z,965.83
2018-10-18T09:49:57.302Z,965.86
2018-10-18T09:50:57.253Z,965.84
2018-10-18T09:51:57.181Z,965.89
2018-10-18T09:52:57.229Z,965.89
2018-10-18T09:53:57.081Z,965.91
2018-10-18T09:54:57.028Z,965.87
2018-10-18T09:55:57.007Z,965.88
2018-10-18T09:56:56.877Z,965.87
2018-10-18T09:57:56.816Z,965.87
2018-10-18T09:58:56.782Z,965.86
2018-10-18T09:59:56.774Z,965.87
2018-10-18T10:00:56.754Z,965.89
2018-10-18T10:01:56.577Z,965.89
2018-10-18T10:02:56.508Z,965.85
2018-10-18T10:03:56.449Z,965.86
2018-10-18T10:04:56.406Z,965.86
2018-10-18T10:05:56.336Z,965.89
2018-10-18T10:06:56.333Z,965.88
2018-10-18T10:07:56.214Z,965.90
2018-10-18T10:08:56.141Z,965.87
2018-10-18T10:09:56.088Z,965.85
2018-10-18T10:10:56.027Z,965.84
2018-10-18T10:11:55.973Z,965.83
2018-10-18T10:12:55.949Z,965.82
2018-10-18T10:13:55.850Z,965.80
2018-10-18T10:14:55.778Z,965.80
2018-10-18T10:15:55.732Z,965.73
2018-10-18T10:16:55.675Z,965.77
2018-10-18T10:17:55.600Z,965.73
2018-10-18T10:18:55.577Z,965.77
2018-10-18T10:19:55.478Z,965.73
2018-10-18T10:20:55.423Z,965.75
2018-10-18T10:21:55.532Z,965.77
2018-10-18T10:22:55.455Z,965.74
2018-10-18T10:23:55.410Z,965.75
2018-10-18T10:24:55.377Z,965.75
2018-10-18T10:25:55.282Z,965.76
2018-10-18T10:26:55.233Z,965.78
2018-10-18T10:27:55.178Z,965.75
2018-10-18T10:28:55.111Z,965.80
2018-10-18T10:29:55.051Z,965.75
2018-10-18T10:30:55.052Z,965.77
2018-10-18T10:31:54.924Z,965.79
2018-10-18T10:32:54.908Z,965.77
2018-10-18T10:33:54.826Z,965.77
2018-10-18T10:34:54.783Z,965.76
2018-10-18T10:35:54.500Z,965.74
2018-10-18T10:36:54.456Z,965.77
2018-10-18T10:37:54.418Z,965.75
2018-10-18T10:38:54.340Z,965.77
2018-10-18T10:39:54.255Z,965.73
2018-10-18T10:40:54.263Z,965.68
2018-10-18T10:41:54.140Z,965.68
2018-10-18T10:42:54.185Z,965.72
2018-10-18T10:43:54.060Z,965.67
2018-10-18T10:44:53.953Z,965.64
2018-10-18T10:45:54.023Z,965.63
2018-10-18T10:46:53.859Z,965.64
2018-10-18T10:47:53.778Z,965.64
2018-10-18T10:48:53.719Z,965.65
2018-10-18T10:49:53.652Z,965.62
2018-10-18T10:50:53.595Z,965.64
2018-10-18T10:51:53.568Z,965.60
2018-10-18T10:52:53.468Z,965.62
2018-10-18T10:53:53.442Z,965.59
2018-10-18T10:54:53.352Z,965.56
2018-10-18T10:55:53.296Z,965.58
2018-10-18T10:56:53.261Z,965.55
2018-10-18T10:57:53.206Z,965.55
2018-10-18T10:58:53.148Z,965.54
2018-10-18T10:59:53.090Z,965.50
2018-10-18T11:00:52.998Z,965.52
2018-10-18T11:01:52.930Z,965.52
2018-10-18T11:02:52.894Z,965.52
2018-10-18T11:03:52.807Z,965.49
2018-10-18T11:04:52.743Z,965.51
2018-10-18T11:05:52.686Z,965.49
2018-10-18T11:06:52.633Z,965.51
2018-10-18T11:07:52.577Z,965.50
2018-10-18T11:08:52.509Z,965.52
2018-10-18T11:09:52.442Z,965.46
2018-10-18T11:10:52.382Z,965.41
2018-10-18T11:11:52.337Z,965.45
2018-10-18T11:12:52.261Z,965.43
2018-10-18T11:13:52.208Z,965.41
2018-10-18T11:14:52.143Z,965.42
2018-10-18T11:15:52.080Z,965.43
2018-10-18T11:16:52.020Z,965.41
2018-10-18T11:17:51.963Z,965.38
2018-10-18T11:18:51.899Z,965.41
2018-10-18T11:19:51.843Z,965.37
2018-10-18T11:20:51.811Z,965.33
2018-10-18T11:21:51.718Z,965.33
2018-10-18T11:22:51.660Z,965.32
2018-10-18T11:23:51.599Z,965.32
2018-10-18T11:24:51.799Z,965.29
2018-10-18T11:25:51.483Z,965.26
2018-10-18T11:26:51.470Z,965.29
2018-10-18T11:27:51.357Z,965.32
2018-10-18T11:28:51.298Z,965.31
2018-10-18T11:29:51.239Z,965.28
2018-10-18T11:30:51.178Z,965.30
2018-10-18T11:31:51.127Z,965.27
2018-10-18T11:32:51.059Z,965.28
2018-10-18T11:33:51.003Z,965.26
2018-10-18T11:34:50.936Z,965.21
2018-10-18T11:35:50.878Z,965.25
2018-10-18T11:36:50.818Z,965.29
2018-10-18T11:37:50.761Z,965.29
2018-10-18T11:38:50.723Z,965.25
2018-10-18T11:39:50.632Z,965.28
2018-10-18T11:40:50.577Z,965.26
2018-10-18T11:41:50.516Z,965.28
2018-10-18T11:42:50.535Z,965.24
2018-10-18T11:43:50.398Z,965.24
2018-10-18T11:44:50.341Z,965.24
2018-10-18T11:45:50.311Z,965.24
2018-10-18T11:46:50.218Z,965.21
2018-10-18T11:47:50.158Z,965.17
2018-10-18T11:48:50.095Z,965.17
2018-10-18T11:49:50.036Z,965.20
2018-10-18T11:50:49.976Z,965.17
2018-10-18T11:51:50.036Z,965.19
2018-10-18T11:52:49.857Z,965.18
2018-10-18T11:53:49.810Z,965.12
2018-10-18T11:54:49.736Z,965.17
2018-10-18T11:55:49.775Z,965.13
2018-10-18T11:56:49.630Z,965.09
2018-10-18T11:57:49.600Z,965.11
2018-10-18T11:58:49.494Z,965.13
2018-10-18T11:59:49.439Z,965.08
2018-10-18T12:00:49.396Z,965.11
2018-10-18T12:01:49.334Z,965.08
2018-10-18T12:02:49.255Z,965.10
2018-10-18T12:03:49.242Z,965.12
2018-10-18T12:04:49.146Z,965.10
2018-10-18T12:05:49.084Z,965.11
2018-10-18T12:06:49.055Z,965.10
2018-10-18T12:07:48.980Z,965.08
2018-10-18T12:08:48.900Z,965.08
2018-10-18T12:09:48.839Z,965.06
2018-10-18T12:10:48.784Z,965.04
2018-10-18T12:11:48.718Z,965.03
2018-10-18T12:12:48.661Z,965.00
2018-10-18T12:13:48.605Z,965.03
2018-10-18T12:14:48.540Z,965.00
2018-10-18T12:15:48.479Z,965.00
2018-10-18T12:16:48.420Z,965.01
2018-10-18T12:17:48.360Z,965.00
2018-10-18T12:18:48.297Z,964.99
2018-10-18T12:19:48.244Z,965.00
2018-10-18T12:20:48.198Z,965.03
2018-10-18T12:21:48.146Z,964.95
2018-10-18T12:22:48.082Z,964.97
2018-10-18T12:23:48.019Z,965.00
2018-10-18T12:24:47.945Z,964.96
2018-10-18T12:25:47.891Z,964.98
2018-10-18T12:26:47.860Z,964.97
2018-10-18T12:27:47.770Z,964.98
2018-10-18T12:28:47.714Z,964.93
2018-10-18T12:29:47.646Z,964.98